Nedlloyd Juliana — A8DG7 — position and weather

sailwx.info

Track history (hours):
 
Tides and Currents Weather Stations Pressure Air Temp Water Temp Dewpoint Dewpoint Depression Visibility Wind Speed Wind Dir Waves Ship Positions

Nedlloyd Juliana

Last reported at 2017-Nov-23 21:36 UTC. Time now 2017-Nov-24 00:05 UTC.
Position N 26°11' W 079°28'.

Length 210.1 m; beam 30.2 m; draft 11.5 m.

Type: Ship. MMSI: 636016851.

Date/timePositionNaut miles runAvg speedWind from/ knotsBaromVisibWave heightAir tempDewpointWater temp
2017-Nov-23 21:36N 26°11' W 079°28'319.4
2017-Nov-23 21:26N 26°08' W 079°29'819.7
2017-Nov-23 21:00N 26°00' W 079°31'1019.7
2017-Nov-23 20:30N 25°50' W 079°32'1119.9
2017-Nov-23 19:57N 25°39' W 079°34'920.3
2017-Nov-23 19:30N 25°30' W 079°36'  
2017-Nov-14 13:27N 37°29' W 074°40'921.3
2017-Nov-14 13:01N 37°38' W 074°40'1121.3
2017-Nov-14 12:30N 37°49' W 074°40'1121.3
2017-Nov-14 12:01N 37°60' W 074°41'1121.1
2017-Nov-14 11:31N 38°10' W 074°41'1121.0
2017-Nov-14 10:59N 38°21' W 074°42'1119.2
2017-Nov-14 10:24N 38°31' W 074°48'512.2
2017-Nov-14 10:00N 38°35' W 074°52'5 9.7
2017-Nov-14 09:31N 38°39' W 074°55'5 9.7
2017-Nov-14 09:00N 38°43' W 074°58'5 9.2
2017-Nov-14 08:28N 38°47' W 075°03'4 8.3
2017-Nov-14 08:00N 38°50' W 075°05'611.5
2017-Nov-14 07:28N 38°56' W 075°06'817.0
2017-Nov-14 07:00N 39°04' W 075°10'917.6
2017-Nov-14 06:30N 39°11' W 075°16'918.8
2017-Nov-14 06:00N 39°18' W 075°23'1019.9
2017-Nov-14 05:30N 39°26' W 075°32'714.9
2017-Nov-14 05:00N 39°33' W 075°33'713.0
2017-Nov-14 04:31N 39°40' W 075°32'713.9
2017-Nov-14 04:01N 39°46' W 075°28'611.8
2017-Nov-14 03:30N 39°50' W 075°22'510.1
2017-Nov-14 03:01N 39°51' W 075°16'510.4
2017-Nov-14 02:30N 39°53' W 075°10'2 3.7
2017-Nov-14 02:00N 39°54' W 075°08'0 0.0
2017-Nov-14 01:30N 39°54' W 075°08'0 0.0
2017-Nov-14 01:00N 39°54' W 075°08'0 0.0
2017-Nov-14 00:30N 39°54' W 075°08'0 0.0
2017-Nov-13 23:59N 39°54' W 075°08'0 0.0
2017-Nov-13 23:29N 39°54' W 075°08'0 0.0
2017-Nov-13 22:59N 39°54' W 075°08'0 0.0
2017-Nov-13 22:29N 39°54' W 075°08'0 0.0
2017-Nov-13 21:59N 39°54' W 075°08'  
Track history (hours):
 
Tides and Currents Weather Stations Pressure Air Temp Water Temp Dewpoint Dewpoint Depression Visibility Wind Speed Wind Dir Waves Ship Positions

Nedlloyd Juliana

Last reported at 2017-Nov-23 21:36 UTC. Time now 2017-Nov-24 00:05 UTC.
Position N 26°11' W 079°28'.

Length 210.1 m; beam 30.2 m; draft 11.5 m.

Type: Ship. MMSI: 636016851.

Date/timePositionNaut miles runAvg speedWind from/ knotsBaromVisibWave heightAir tempDewpointWater temp
2017-Nov-23 21:36N 26°11' W 079°28'319.4
2017-Nov-23 21:26N 26°08' W 079°29'819.7
2017-Nov-23 21:00N 26°00' W 079°31'1019.7
2017-Nov-23 20:30N 25°50' W 079°32'1119.9
2017-Nov-23 19:57N 25°39' W 079°34'920.3
2017-Nov-23 19:30N 25°30' W 079°36'  
2017-Nov-14 13:27N 37°29' W 074°40'921.3
2017-Nov-14 13:01N 37°38' W 074°40'1121.3
2017-Nov-14 12:30N 37°49' W 074°40'1121.3
2017-Nov-14 12:01N 37°60' W 074°41'1121.1
2017-Nov-14 11:31N 38°10' W 074°41'1121.0
2017-Nov-14 10:59N 38°21' W 074°42'1119.2
2017-Nov-14 10:24N 38°31' W 074°48'512.2
2017-Nov-14 10:00N 38°35' W 074°52'5 9.7
2017-Nov-14 09:31N 38°39' W 074°55'5 9.7
2017-Nov-14 09:00N 38°43' W 074°58'5 9.2
2017-Nov-14 08:28N 38°47' W 075°03'4 8.3
2017-Nov-14 08:00N 38°50' W 075°05'611.5
2017-Nov-14 07:28N 38°56' W 075°06'817.0
2017-Nov-14 07:00N 39°04' W 075°10'917.6
2017-Nov-14 06:30N 39°11' W 075°16'918.8
2017-Nov-14 06:00N 39°18' W 075°23'1019.9
2017-Nov-14 05:30N 39°26' W 075°32'714.9
2017-Nov-14 05:00N 39°33' W 075°33'713.0
2017-Nov-14 04:31N 39°40' W 075°32'713.9
2017-Nov-14 04:01N 39°46' W 075°28'611.8
2017-Nov-14 03:30N 39°50' W 075°22'510.1
2017-Nov-14 03:01N 39°51' W 075°16'510.4
2017-Nov-14 02:30N 39°53' W 075°10'2 3.7
2017-Nov-14 02:00N 39°54' W 075°08'0 0.0
2017-Nov-14 01:30N 39°54' W 075°08'0 0.0
2017-Nov-14 01:00N 39°54' W 075°08'0 0.0
2017-Nov-14 00:30N 39°54' W 075°08'0 0.0
2017-Nov-13 23:59N 39°54' W 075°08'0 0.0
2017-Nov-13 23:29N 39°54' W 075°08'0 0.0
2017-Nov-13 22:59N 39°54' W 075°08'0 0.0
2017-Nov-13 22:29N 39°54' W 075°08'0 0.0
2017-Nov-13 21:59N 39°54' W 075°08'  

Dump ship's entire track history